• Join FlightAware (Why Join?)
  • Login
  • US Flag 
02:40PM EDT


 

Airport Tracker/Info


-or-


 

Live Flight TrackerFlight Track Log ✈ EJA361 ✈ 14-Jun-2013 ✈ KCGF - KPIT

Flight Track Log - Related Links

Times and Time Zones

All times are in EDT time to prevent confusion due to time zone crossing. See the EJA361 flight status page for this flight to view local times or setup timezone preferences in your user account.

Time Position Orientation Groundspeed Altitude Reporting Facility
EDT Latitude Longitude Course Direction KTS MPH feet Rate Location/Type
06:03PM 41.5192 -81.4289 147° Southeast 208 239 5,800  Level Cleveland Center
06:04PM 41.4608 -81.4172 171° South 214 246 9,200 2,100 Climbing Cleveland Center
06:05PM 41.3861 -81.3692 154° Southeast 261 300 10,100 360 Climbing Cleveland Center
06:06PM 41.2925 -81.3156 157° South 338 389 10,000 -60 Descending Cleveland Center
06:07PM 41.2117 -81.2650 155° Southeast 361 415 10,000 300 Level Cleveland Center
06:08PM 41.1244 -81.1978 150° Southeast 366 421 10,600 480 Climbing Cleveland Center
06:09PM 41.0603 -81.0897 128° Southeast 366 421 11,000 180 Climbing Cleveland Center
06:10PM 41.0089 -80.9572 117° Southeast 366 421 11,000  Level Cleveland Center
06:11PM 40.9592 -80.8389 119° Southeast 366 421 11,000  Level Cleveland Center
06:12PM 40.9092 -80.7233 120° Southeast 366 421 11,000  Level Cleveland Center
06:13PM 40.8531 -80.6189 125° Southeast 361 415 11,000 -300 Level Cleveland Center
06:14PM 40.7739 -80.5339 141° Southeast 351 404 10,500 -540 Descending Cleveland Center
06:15PM 40.6944 -80.4544 143° Southeast 356 410 10,000 -1,140 Descending Cleveland Center
06:16PM 40.6486 -80.3642 124° Southeast 317 365 8,300 -1,020 Descending Cleveland Center
06:17PM 40.6089 -80.2742 120° Southeast 297 342 8,000 -780 Descending Cleveland Center
06:18PM 40.5814 -80.1894 113° Southeast 269 310 6,800 -1,500 Descending Cleveland Center
06:19PM 40.5372 -80.1186 129° Southeast 255 293 5,100 -1,740 Descending Cleveland Center
06:21PM 40.4833 -80.2167 143° Southeast  Level FlightAware Approximate
06:28PM 40.4915 -80.2329 143° Southeast  Level Estimated
06:29PM 40.4915 -80.2329 143° Southeast  Level Estimated
06:30PM 40.4915 -80.2329 143° Southeast  Level Estimated